sensor_id;sensor_type;location;lat;lon;timestamp;P1;durP1;ratioP1;P2;durP2;ratioP2
663;SDS011;314;48.770;9.246;2022-09-13T00:00:38;2.83;;;1.95;;
663;SDS011;314;48.770;9.246;2022-09-13T00:03:05;1.48;;;1.40;;
663;SDS011;314;48.770;9.246;2022-09-13T00:05:31;2.55;;;1.70;;
663;SDS011;314;48.770;9.246;2022-09-13T00:07:58;4.93;;;2.13;;
663;SDS011;314;48.770;9.246;2022-09-13T00:10:24;1.93;;;1.83;;
663;SDS011;314;48.770;9.246;2022-09-13T00:12:50;3.05;;;2.33;;
663;SDS011;314;48.770;9.246;2022-09-13T00:15:17;2.75;;;1.88;;
663;SDS011;314;48.770;9.246;2022-09-13T00:17:43;3.53;;;2.20;;
663;SDS011;314;48.770;9.246;2022-09-13T00:20:09;2.50;;;1.83;;
663;SDS011;314;48.770;9.246;2022-09-13T00:22:35;3.97;;;2.33;;
663;SDS011;314;48.770;9.246;2022-09-13T00:25:04;3.25;;;1.80;;
663;SDS011;314;48.770;9.246;2022-09-13T00:27:32;2.15;;;1.70;;
663;SDS011;314;48.770;9.246;2022-09-13T00:29:59;3.20;;;1.80;;
663;SDS011;314;48.770;9.246;2022-09-13T00:32:25;2.97;;;1.75;;
663;SDS011;314;48.770;9.246;2022-09-13T00:34:51;3.70;;;1.90;;
663;SDS011;314;48.770;9.246;2022-09-13T00:37:17;2.87;;;1.97;;
663;SDS011;314;48.770;9.246;2022-09-13T00:39:42;1.97;;;1.40;;
663;SDS011;314;48.770;9.246;2022-09-13T00:42:11;4.87;;;1.90;;
663;SDS011;314;48.770;9.246;2022-09-13T00:47:34;3.65;;;2.08;;
663;SDS011;314;48.770;9.246;2022-09-13T00:52:50;3.03;;;1.80;;
663;SDS011;314;48.770;9.246;2022-09-13T00:55:42;3.35;;;2.00;;
663;SDS011;314;48.770;9.246;2022-09-13T00:58:19;1.85;;;1.70;;
663;SDS011;314;48.770;9.246;2022-09-13T01:00:49;2.85;;;1.92;;
663;SDS011;314;48.770;9.246;2022-09-13T01:03:16;2.83;;;1.83;;
663;SDS011;314;48.770;9.246;2022-09-13T01:05:53;4.15;;;2.50;;
663;SDS011;314;48.770;9.246;2022-09-13T01:08:24;4.15;;;1.95;;
663;SDS011;314;48.770;9.246;2022-09-13T01:10:55;1.98;;;1.30;;
663;SDS011;314;48.770;9.246;2022-09-13T01:13:25;3.00;;;2.15;;
663;SDS011;314;48.770;9.246;2022-09-13T01:15:56;5.95;;;2.80;;
663;SDS011;314;48.770;9.246;2022-09-13T01:18:22;4.53;;;2.13;;
663;SDS011;314;48.770;9.246;2022-09-13T01:29:27;1.95;;;1.40;;
663;SDS011;314;48.770;9.246;2022-09-13T01:32:05;3.65;;;2.35;;
663;SDS011;314;48.770;9.246;2022-09-13T01:34:41;4.25;;;2.63;;
663;SDS011;314;48.770;9.246;2022-09-13T01:48:04;3.53;;;2.25;;
663;SDS011;314;48.770;9.246;2022-09-13T01:54:08;2.10;;;1.70;;
663;SDS011;314;48.770;9.246;2022-09-13T01:56:53;3.60;;;2.67;;
663;SDS011;314;48.770;9.246;2022-09-13T01:59:27;2.72;;;1.67;;
663;SDS011;314;48.770;9.246;2022-09-13T02:01:58;2.85;;;1.63;;
663;SDS011;314;48.770;9.246;2022-09-13T02:04:34;2.40;;;2.10;;
663;SDS011;314;48.770;9.246;2022-09-13T02:07:06;1.88;;;1.70;;
663;SDS011;314;48.770;9.246;2022-09-13T02:09:45;3.45;;;1.77;;
663;SDS011;314;48.770;9.246;2022-09-13T02:12:15;1.45;;;1.30;;
663;SDS011;314;48.770;9.246;2022-09-13T02:14:50;4.13;;;2.45;;
663;SDS011;314;48.770;9.246;2022-09-13T02:17:30;3.25;;;1.85;;
663;SDS011;314;48.770;9.246;2022-09-13T02:20:02;2.30;;;1.55;;
663;SDS011;314;48.770;9.246;2022-09-13T02:22:38;2.38;;;1.80;;
663;SDS011;314;48.770;9.246;2022-09-13T02:25:08;4.30;;;2.47;;
663;SDS011;314;48.770;9.246;2022-09-13T02:27:37;3.53;;;1.42;;
663;SDS011;314;48.770;9.246;2022-09-13T02:30:09;1.92;;;1.45;;
663;SDS011;314;48.770;9.246;2022-09-13T02:35:19;3.55;;;2.30;;
663;SDS011;314;48.770;9.246;2022-09-13T02:38:03;2.80;;;2.13;;
663;SDS011;314;48.770;9.246;2022-09-13T02:40:38;4.72;;;2.38;;
663;SDS011;314;48.770;9.246;2022-09-13T02:43:08;3.78;;;2.30;;
663;SDS011;314;48.770;9.246;2022-09-13T02:45:50;1.85;;;1.75;;
663;SDS011;314;48.770;9.246;2022-09-13T02:48:28;10.13;;;3.17;;
663;SDS011;314;48.770;9.246;2022-09-13T02:51:06;2.40;;;2.15;;
663;SDS011;314;48.770;9.246;2022-09-13T02:53:49;5.90;;;2.28;;
663;SDS011;314;48.770;9.246;2022-09-13T02:56:33;2.65;;;1.80;;
663;SDS011;314;48.770;9.246;2022-09-13T03:01:43;2.90;;;2.10;;
663;SDS011;314;48.770;9.246;2022-09-13T03:04:13;5.30;;;2.30;;
663;SDS011;314;48.770;9.246;2022-09-13T03:06:39;4.87;;;2.23;;
663;SDS011;314;48.770;9.246;2022-09-13T03:09:06;2.88;;;1.92;;
663;SDS011;314;48.770;9.246;2022-09-13T03:28:05;2.97;;;2.05;;
663;SDS011;314;48.770;9.246;2022-09-13T03:30:50;3.33;;;2.15;;
663;SDS011;314;48.770;9.246;2022-09-13T03:33:27;1.90;;;1.83;;
663;SDS011;314;48.770;9.246;2022-09-13T03:38:42;4.70;;;2.65;;
663;SDS011;314;48.770;9.246;2022-09-13T03:41:18;5.63;;;2.75;;
663;SDS011;314;48.770;9.246;2022-09-13T03:43:49;3.70;;;1.58;;
663;SDS011;314;48.770;9.246;2022-09-13T03:46:42;4.65;;;2.63;;
663;SDS011;314;48.770;9.246;2022-09-13T03:49:13;3.50;;;2.53;;
663;SDS011;314;48.770;9.246;2022-09-13T03:51:45;8.43;;;2.28;;
663;SDS011;314;48.770;9.246;2022-09-13T03:54:18;5.18;;;2.25;;
663;SDS011;314;48.770;9.246;2022-09-13T03:59:32;4.40;;;1.67;;
663;SDS011;314;48.770;9.246;2022-09-13T04:02:01;3.60;;;2.17;;
663;SDS011;314;48.770;9.246;2022-09-13T04:04:27;1.92;;;1.67;;
663;SDS011;314;48.770;9.246;2022-09-13T04:06:52;1.97;;;1.87;;
663;SDS011;314;48.770;9.246;2022-09-13T04:09:20;3.97;;;1.88;;
663;SDS011;314;48.770;9.246;2022-09-13T04:11:46;4.25;;;2.20;;
663;SDS011;314;48.770;9.246;2022-09-13T04:14:12;6.10;;;2.33;;
663;SDS011;314;48.770;9.246;2022-09-13T04:16:40;3.63;;;2.15;;
663;SDS011;314;48.770;9.246;2022-09-13T04:19:06;1.90;;;1.77;;
663;SDS011;314;48.770;9.246;2022-09-13T04:21:31;4.17;;;2.17;;
663;SDS011;314;48.770;9.246;2022-09-13T04:23:57;4.13;;;2.20;;
663;SDS011;314;48.770;9.246;2022-09-13T04:26:23;4.67;;;1.90;;
663;SDS011;314;48.770;9.246;2022-09-13T04:28:51;3.17;;;2.13;;
663;SDS011;314;48.770;9.246;2022-09-13T04:31:17;2.70;;;1.98;;
663;SDS011;314;48.770;9.246;2022-09-13T04:33:43;4.40;;;2.23;;
663;SDS011;314;48.770;9.246;2022-09-13T04:36:08;2.63;;;2.10;;
663;SDS011;314;48.770;9.246;2022-09-13T04:38:34;2.90;;;2.03;;
663;SDS011;314;48.770;9.246;2022-09-13T04:41:01;9.90;;;1.98;;
663;SDS011;314;48.770;9.246;2022-09-13T04:43:27;1.92;;;1.63;;
663;SDS011;314;48.770;9.246;2022-09-13T04:45:53;2.30;;;1.67;;
663;SDS011;314;48.770;9.246;2022-09-13T04:48:18;1.47;;;1.37;;
663;SDS011;314;48.770;9.246;2022-09-13T04:50:44;3.27;;;1.80;;
663;SDS011;314;48.770;9.246;2022-09-13T04:53:10;4.60;;;2.83;;
663;SDS011;314;48.770;9.246;2022-09-13T04:55:36;2.43;;;1.83;;
663;SDS011;314;48.770;9.246;2022-09-13T04:58:01;3.47;;;2.20;;
663;SDS011;314;48.770;9.246;2022-09-13T05:00:28;2.60;;;2.28;;
663;SDS011;314;48.770;9.246;2022-09-13T05:02:55;2.53;;;1.60;;
663;SDS011;314;48.770;9.246;2022-09-13T05:05:22;3.95;;;2.00;;
663;SDS011;314;48.770;9.246;2022-09-13T05:07:49;7.30;;;2.50;;
663;SDS011;314;48.770;9.246;2022-09-13T05:10:16;3.72;;;2.42;;
663;SDS011;314;48.770;9.246;2022-09-13T05:12:42;3.45;;;2.25;;
663;SDS011;314;48.770;9.246;2022-09-13T05:15:08;2.30;;;1.60;;
663;SDS011;314;48.770;9.246;2022-09-13T05:17:36;2.22;;;2.03;;
663;SDS011;314;48.770;9.246;2022-09-13T05:20:02;3.50;;;2.22;;
663;SDS011;314;48.770;9.246;2022-09-13T05:22:29;4.95;;;2.15;;
663;SDS011;314;48.770;9.246;2022-09-13T05:24:55;7.85;;;2.50;;
663;SDS011;314;48.770;9.246;2022-09-13T05:27:21;4.10;;;1.90;;
663;SDS011;314;48.770;9.246;2022-09-13T05:29:47;3.07;;;1.93;;
663;SDS011;314;48.770;9.246;2022-09-13T05:32:13;2.97;;;2.00;;
663;SDS011;314;48.770;9.246;2022-09-13T05:34:38;6.63;;;1.80;;
663;SDS011;314;48.770;9.246;2022-09-13T05:37:04;2.87;;;1.90;;
663;SDS011;314;48.770;9.246;2022-09-13T05:39:30;3.40;;;2.27;;
663;SDS011;314;48.770;9.246;2022-09-13T05:41:56;4.03;;;1.80;;
663;SDS011;314;48.770;9.246;2022-09-13T05:44:22;2.15;;;1.45;;
663;SDS011;314;48.770;9.246;2022-09-13T05:46:48;3.10;;;2.20;;
663;SDS011;314;48.770;9.246;2022-09-13T05:49:14;2.50;;;1.70;;
663;SDS011;314;48.770;9.246;2022-09-13T05:51:40;6.07;;;2.67;;
663;SDS011;314;48.770;9.246;2022-09-13T05:54:07;5.95;;;2.50;;
663;SDS011;314;48.770;9.246;2022-09-13T05:56:36;5.57;;;1.70;;
663;SDS011;314;48.770;9.246;2022-09-13T05:59:02;1.87;;;1.70;;
663;SDS011;314;48.770;9.246;2022-09-13T06:01:28;5.60;;;2.03;;
663;SDS011;314;48.770;9.246;2022-09-13T06:03:55;4.83;;;1.90;;
663;SDS011;314;48.770;9.246;2022-09-13T06:06:22;4.47;;;2.00;;
663;SDS011;314;48.770;9.246;2022-09-13T06:08:55;4.47;;;1.90;;
663;SDS011;314;48.770;9.246;2022-09-13T06:11:22;2.28;;;1.73;;
663;SDS011;314;48.770;9.246;2022-09-13T06:13:49;2.00;;;1.40;;
663;SDS011;314;48.770;9.246;2022-09-13T06:16:15;2.45;;;1.70;;
663;SDS011;314;48.770;9.246;2022-09-13T06:18:41;5.70;;;2.75;;
663;SDS011;314;48.770;9.246;2022-09-13T06:21:11;5.20;;;1.90;;
663;SDS011;314;48.770;9.246;2022-09-13T06:23:49;3.25;;;2.42;;
663;SDS011;314;48.770;9.246;2022-09-13T06:26:17;3.47;;;2.30;;
663;SDS011;314;48.770;9.246;2022-09-13T06:28:48;2.53;;;1.70;;
663;SDS011;314;48.770;9.246;2022-09-13T06:31:16;3.28;;;2.28;;
663;SDS011;314;48.770;9.246;2022-09-13T06:33:43;5.95;;;2.45;;
663;SDS011;314;48.770;9.246;2022-09-13T06:36:10;4.13;;;2.28;;
663;SDS011;314;48.770;9.246;2022-09-13T06:38:38;4.38;;;2.03;;
663;SDS011;314;48.770;9.246;2022-09-13T06:41:06;6.75;;;2.60;;
663;SDS011;314;48.770;9.246;2022-09-13T06:43:33;2.65;;;1.67;;
663;SDS011;314;48.770;9.246;2022-09-13T06:46:01;5.07;;;2.22;;
663;SDS011;314;48.770;9.246;2022-09-13T06:48:32;3.33;;;2.08;;
663;SDS011;314;48.770;9.246;2022-09-13T06:51:01;1.92;;;1.75;;
663;SDS011;314;48.770;9.246;2022-09-13T06:53:28;3.97;;;2.35;;
663;SDS011;314;48.770;9.246;2022-09-13T06:55:59;2.47;;;2.05;;
663;SDS011;314;48.770;9.246;2022-09-13T06:58:26;2.97;;;2.42;;
663;SDS011;314;48.770;9.246;2022-09-13T07:00:53;8.57;;;3.67;;
663;SDS011;314;48.770;9.246;2022-09-13T07:03:28;4.30;;;2.47;;
663;SDS011;314;48.770;9.246;2022-09-13T07:05:54;6.20;;;2.70;;
663;SDS011;314;48.770;9.246;2022-09-13T07:08:20;6.23;;;3.00;;
663;SDS011;314;48.770;9.246;2022-09-13T07:10:45;3.90;;;2.77;;
663;SDS011;314;48.770;9.246;2022-09-13T07:13:11;3.63;;;2.63;;
663;SDS011;314;48.770;9.246;2022-09-13T07:15:37;6.87;;;3.20;;
663;SDS011;314;48.770;9.246;2022-09-13T07:18:03;9.83;;;2.60;;
663;SDS011;314;48.770;9.246;2022-09-13T07:20:28;3.77;;;2.30;;
663;SDS011;314;48.770;9.246;2022-09-13T07:22:54;8.43;;;3.85;;
663;SDS011;314;48.770;9.246;2022-09-13T07:25:20;5.20;;;2.77;;
663;SDS011;314;48.770;9.246;2022-09-13T07:27:46;3.37;;;2.53;;
663;SDS011;314;48.770;9.246;2022-09-13T07:30:12;3.47;;;3.30;;
663;SDS011;314;48.770;9.246;2022-09-13T07:32:37;10.10;;;2.70;;
663;SDS011;314;48.770;9.246;2022-09-13T07:35:03;6.03;;;2.40;;
663;SDS011;314;48.770;9.246;2022-09-13T07:37:30;9.27;;;2.50;;
663;SDS011;314;48.770;9.246;2022-09-13T07:39:56;5.13;;;2.67;;
663;SDS011;314;48.770;9.246;2022-09-13T07:42:22;3.20;;;2.27;;
663;SDS011;314;48.770;9.246;2022-09-13T07:44:47;3.30;;;2.97;;
663;SDS011;314;48.770;9.246;2022-09-13T07:47:13;6.10;;;2.97;;
663;SDS011;314;48.770;9.246;2022-09-13T07:49:39;3.72;;;2.25;;
663;SDS011;314;48.770;9.246;2022-09-13T07:52:05;4.40;;;1.90;;
663;SDS011;314;48.770;9.246;2022-09-13T07:54:31;4.80;;;2.23;;
663;SDS011;314;48.770;9.246;2022-09-13T07:56:58;4.97;;;2.72;;
663;SDS011;314;48.770;9.246;2022-09-13T07:59:24;4.80;;;2.63;;
663;SDS011;314;48.770;9.246;2022-09-13T08:01:50;6.33;;;3.40;;
663;SDS011;314;48.770;9.246;2022-09-13T08:04:17;8.02;;;3.15;;
663;SDS011;314;48.770;9.246;2022-09-13T08:06:45;4.93;;;2.47;;
663;SDS011;314;48.770;9.246;2022-09-13T08:09:11;4.67;;;2.40;;
663;SDS011;314;48.770;9.246;2022-09-13T08:11:38;7.63;;;3.20;;
663;SDS011;314;48.770;9.246;2022-09-13T08:14:06;7.40;;;2.92;;
663;SDS011;314;48.770;9.246;2022-09-13T08:16:33;4.68;;;2.75;;
663;SDS011;314;48.770;9.246;2022-09-13T08:19:00;4.50;;;2.57;;
663;SDS011;314;48.770;9.246;2022-09-13T08:21:32;3.65;;;2.30;;
663;SDS011;314;48.770;9.246;2022-09-13T08:23:59;5.28;;;2.78;;
663;SDS011;314;48.770;9.246;2022-09-13T08:26:29;8.13;;;3.88;;
663;SDS011;314;48.770;9.246;2022-09-13T08:28:57;4.50;;;2.53;;
663;SDS011;314;48.770;9.246;2022-09-13T08:31:29;3.55;;;2.85;;
663;SDS011;314;48.770;9.246;2022-09-13T08:33:55;6.05;;;2.15;;
663;SDS011;314;48.770;9.246;2022-09-13T08:36:22;3.65;;;2.22;;
663;SDS011;314;48.770;9.246;2022-09-13T08:38:50;4.25;;;2.65;;
663;SDS011;314;48.770;9.246;2022-09-13T08:44:04;3.13;;;2.15;;
663;SDS011;314;48.770;9.246;2022-09-13T08:46:43;4.63;;;3.15;;
663;SDS011;314;48.770;9.246;2022-09-13T08:49:12;4.03;;;2.60;;
663;SDS011;314;48.770;9.246;2022-09-13T08:51:49;3.63;;;2.58;;
663;SDS011;314;48.770;9.246;2022-09-13T08:54:18;2.83;;;2.00;;
663;SDS011;314;48.770;9.246;2022-09-13T09:08:05;3.90;;;2.05;;
663;SDS011;314;48.770;9.246;2022-09-13T09:10:44;2.13;;;1.98;;
663;SDS011;314;48.770;9.246;2022-09-13T09:13:16;2.95;;;2.05;;
663;SDS011;314;48.770;9.246;2022-09-13T09:15:48;4.63;;;2.50;;
663;SDS011;314;48.770;9.246;2022-09-13T09:18:40;6.28;;;2.65;;
663;SDS011;314;48.770;9.246;2022-09-13T09:21:11;2.30;;;1.90;;
663;SDS011;314;48.770;9.246;2022-09-13T09:23:50;1.50;;;1.45;;
663;SDS011;314;48.770;9.246;2022-09-13T09:29:00;7.85;;;2.40;;
663;SDS011;314;48.770;9.246;2022-09-13T09:31:52;3.67;;;2.15;;
663;SDS011;314;48.770;9.246;2022-09-13T09:34:28;4.78;;;2.20;;
663;SDS011;314;48.770;9.246;2022-09-13T09:39:57;3.72;;;1.70;;
663;SDS011;314;48.770;9.246;2022-09-13T09:42:31;2.63;;;2.35;;
663;SDS011;314;48.770;9.246;2022-09-13T09:47:43;5.57;;;2.10;;
663;SDS011;314;48.770;9.246;2022-09-13T09:50:16;4.00;;;2.38;;
663;SDS011;314;48.770;9.246;2022-09-13T09:57:53;3.15;;;2.63;;
663;SDS011;314;48.770;9.246;2022-09-13T10:00:34;2.38;;;1.60;;
663;SDS011;314;48.770;9.246;2022-09-13T10:03:04;5.25;;;2.03;;
663;SDS011;314;48.770;9.246;2022-09-13T10:05:42;4.38;;;2.35;;
663;SDS011;314;48.770;9.246;2022-09-13T10:08:12;3.83;;;1.40;;
663;SDS011;314;48.770;9.246;2022-09-13T10:10:57;3.65;;;1.85;;
663;SDS011;314;48.770;9.246;2022-09-13T10:13:25;3.45;;;1.80;;
663;SDS011;314;48.770;9.246;2022-09-13T10:15:51;1.45;;;1.10;;
663;SDS011;314;48.770;9.246;2022-09-13T10:18:20;2.05;;;1.50;;
663;SDS011;314;48.770;9.246;2022-09-13T10:23:27;1.02;;;0.98;;
663;SDS011;314;48.770;9.246;2022-09-13T10:31:32;1.88;;;1.83;;
663;SDS011;314;48.770;9.246;2022-09-13T10:34:16;4.18;;;2.15;;
663;SDS011;314;48.770;9.246;2022-09-13T10:39:21;3.55;;;2.53;;
663;SDS011;314;48.770;9.246;2022-09-13T10:44:22;2.05;;;1.55;;
663;SDS011;314;48.770;9.246;2022-09-13T10:46:52;2.15;;;1.65;;
663;SDS011;314;48.770;9.246;2022-09-13T10:52:23;1.45;;;1.20;;
663;SDS011;314;48.770;9.246;2022-09-13T11:00:38;1.73;;;1.13;;
663;SDS011;314;48.770;9.246;2022-09-13T11:11:55;2.60;;;1.52;;
663;SDS011;314;48.770;9.246;2022-09-13T11:15:26;5.13;;;1.80;;
663;SDS011;314;48.770;9.246;2022-09-13T11:18:01;1.83;;;1.67;;
663;SDS011;314;48.770;9.246;2022-09-13T11:20:54;3.25;;;1.10;;
663;SDS011;314;48.770;9.246;2022-09-13T11:37:31;2.45;;;1.42;;
663;SDS011;314;48.770;9.246;2022-09-13T11:40:23;1.25;;;1.00;;
663;SDS011;314;48.770;9.246;2022-09-13T11:45:36;1.30;;;0.85;;
663;SDS011;314;48.770;9.246;2022-09-13T11:48:36;2.60;;;1.67;;
663;SDS011;314;48.770;9.246;2022-09-13T11:57:05;1.08;;;1.02;;
663;SDS011;314;48.770;9.246;2022-09-13T12:02:13;0.88;;;0.80;;
663;SDS011;314;48.770;9.246;2022-09-13T12:04:50;1.45;;;1.05;;
663;SDS011;314;48.770;9.246;2022-09-13T12:07:32;2.45;;;1.60;;
663;SDS011;314;48.770;9.246;2022-09-13T12:10:16;1.10;;;1.00;;
663;SDS011;314;48.770;9.246;2022-09-13T12:12:53;1.05;;;1.00;;
663;SDS011;314;48.770;9.246;2022-09-13T12:18:01;1.60;;;1.10;;
663;SDS011;314;48.770;9.246;2022-09-13T12:20:40;1.08;;;0.73;;
663;SDS011;314;48.770;9.246;2022-09-13T12:23:16;2.10;;;1.00;;
663;SDS011;314;48.770;9.246;2022-09-13T12:25:50;1.73;;;0.98;;
663;SDS011;314;48.770;9.246;2022-09-13T12:31:22;0.77;;;0.50;;
663;SDS011;314;48.770;9.246;2022-09-13T12:33:43;0.98;;;0.73;;
663;SDS011;314;48.770;9.246;2022-09-13T12:36:16;0.98;;;0.88;;
663;SDS011;314;48.770;9.246;2022-09-13T12:41:41;1.60;;;0.90;;
663;SDS011;314;48.770;9.246;2022-09-13T12:44:16;0.88;;;0.70;;
663;SDS011;314;48.770;9.246;2022-09-13T12:47:05;0.65;;;0.50;;
663;SDS011;314;48.770;9.246;2022-09-13T12:50:12;5.25;;;0.80;;
663;SDS011;314;48.770;9.246;2022-09-13T13:01:20;1.77;;;1.35;;
663;SDS011;314;48.770;9.246;2022-09-13T13:03:55;0.73;;;0.68;;
663;SDS011;314;48.770;9.246;2022-09-13T13:12:05;1.48;;;0.70;;
663;SDS011;314;48.770;9.246;2022-09-13T13:23:17;0.88;;;0.77;;
663;SDS011;314;48.770;9.246;2022-09-13T13:39:04;1.10;;;1.00;;
663;SDS011;314;48.770;9.246;2022-09-13T13:46:53;0.93;;;0.60;;
663;SDS011;314;48.770;9.246;2022-09-13T13:49:41;1.35;;;0.63;;
663;SDS011;314;48.770;9.246;2022-09-13T14:00:14;0.70;;;0.60;;
663;SDS011;314;48.770;9.246;2022-09-13T14:08:22;0.63;;;0.63;;
663;SDS011;314;48.770;9.246;2022-09-13T14:10:58;1.67;;;0.70;;
663;SDS011;314;48.770;9.246;2022-09-13T14:21:30;0.95;;;0.70;;
663;SDS011;314;48.770;9.246;2022-09-13T14:24:07;0.70;;;0.55;;
663;SDS011;314;48.770;9.246;2022-09-13T14:26:39;0.50;;;0.40;;
663;SDS011;314;48.770;9.246;2022-09-13T14:29:06;0.67;;;0.67;;
663;SDS011;314;48.770;9.246;2022-09-13T14:31:33;1.35;;;0.60;;
663;SDS011;314;48.770;9.246;2022-09-13T14:33:59;2.28;;;0.80;;
663;SDS011;314;48.770;9.246;2022-09-13T14:36:25;0.87;;;0.57;;
663;SDS011;314;48.770;9.246;2022-09-13T14:39:00;1.30;;;0.57;;
663;SDS011;314;48.770;9.246;2022-09-13T14:41:36;1.88;;;0.60;;
663;SDS011;314;48.770;9.246;2022-09-13T14:47:03;0.73;;;0.70;;
663;SDS011;314;48.770;9.246;2022-09-13T14:49:53;6.07;;;0.60;;
663;SDS011;314;48.770;9.246;2022-09-13T14:52:31;0.77;;;0.60;;
663;SDS011;314;48.770;9.246;2022-09-13T14:55:13;1.52;;;0.70;;
663;SDS011;314;48.770;9.246;2022-09-13T14:57:46;1.48;;;0.75;;
663;SDS011;314;48.770;9.246;2022-09-13T15:00:19;0.77;;;0.50;;
663;SDS011;314;48.770;9.246;2022-09-13T15:02:49;0.65;;;0.60;;
663;SDS011;314;48.770;9.246;2022-09-13T15:05:17;1.05;;;0.80;;
663;SDS011;314;48.770;9.246;2022-09-13T15:07:46;1.48;;;0.68;;
663;SDS011;314;48.770;9.246;2022-09-13T15:17:52;0.80;;;0.75;;
663;SDS011;314;48.770;9.246;2022-09-13T15:20:23;2.00;;;0.90;;
663;SDS011;314;48.770;9.246;2022-09-13T15:22:51;0.70;;;0.70;;
663;SDS011;314;48.770;9.246;2022-09-13T15:27:51;1.38;;;0.88;;
663;SDS011;314;48.770;9.246;2022-09-13T15:32:47;1.00;;;0.90;;
663;SDS011;314;48.770;9.246;2022-09-13T15:35:17;1.33;;;1.20;;
663;SDS011;314;48.770;9.246;2022-09-13T15:37:57;0.70;;;0.60;;
663;SDS011;314;48.770;9.246;2022-09-13T15:40:25;1.10;;;0.85;;
663;SDS011;314;48.770;9.246;2022-09-13T15:42:53;1.38;;;1.25;;
663;SDS011;314;48.770;9.246;2022-09-13T15:45:19;1.48;;;0.88;;
663;SDS011;314;48.770;9.246;2022-09-13T15:47:47;0.73;;;0.57;;
663;SDS011;314;48.770;9.246;2022-09-13T15:50:22;0.82;;;0.80;;
663;SDS011;314;48.770;9.246;2022-09-13T15:52:51;1.70;;;1.10;;
663;SDS011;314;48.770;9.246;2022-09-13T15:55:18;1.20;;;0.75;;
663;SDS011;314;48.770;9.246;2022-09-13T15:57:44;1.75;;;1.02;;
663;SDS011;314;48.770;9.246;2022-09-13T16:00:15;2.15;;;0.95;;
663;SDS011;314;48.770;9.246;2022-09-13T16:02:43;3.50;;;0.90;;
663;SDS011;314;48.770;9.246;2022-09-13T16:05:09;1.40;;;0.90;;
663;SDS011;314;48.770;9.246;2022-09-13T16:07:35;1.55;;;0.95;;
663;SDS011;314;48.770;9.246;2022-09-13T16:10:02;0.90;;;0.90;;
663;SDS011;314;48.770;9.246;2022-09-13T16:12:29;1.17;;;0.90;;
663;SDS011;314;48.770;9.246;2022-09-13T16:14:54;1.77;;;0.97;;
663;SDS011;314;48.770;9.246;2022-09-13T16:17:22;0.82;;;0.68;;
663;SDS011;314;48.770;9.246;2022-09-13T16:19:49;1.20;;;0.98;;
663;SDS011;314;48.770;9.246;2022-09-13T16:22:15;3.70;;;1.03;;
663;SDS011;314;48.770;9.246;2022-09-13T16:24:41;1.17;;;1.02;;
663;SDS011;314;48.770;9.246;2022-09-13T16:27:08;0.90;;;0.60;;
663;SDS011;314;48.770;9.246;2022-09-13T16:29:38;2.00;;;1.40;;
663;SDS011;314;48.770;9.246;2022-09-13T16:32:05;1.17;;;0.90;;
663;SDS011;314;48.770;9.246;2022-09-13T16:34:31;0.70;;;0.70;;
663;SDS011;314;48.770;9.246;2022-09-13T16:36:57;1.17;;;0.97;;
663;SDS011;314;48.770;9.246;2022-09-13T16:39:22;2.27;;;1.20;;
663;SDS011;314;48.770;9.246;2022-09-13T16:41:49;1.27;;;0.90;;
663;SDS011;314;48.770;9.246;2022-09-13T16:44:15;1.55;;;1.10;;
663;SDS011;314;48.770;9.246;2022-09-13T16:46:41;2.58;;;0.80;;
663;SDS011;314;48.770;9.246;2022-09-13T16:49:08;1.05;;;0.77;;
663;SDS011;314;48.770;9.246;2022-09-13T16:51:34;1.02;;;0.98;;
663;SDS011;314;48.770;9.246;2022-09-13T16:54:00;0.75;;;0.70;;
663;SDS011;314;48.770;9.246;2022-09-13T16:56:27;1.50;;;0.75;;
663;SDS011;314;48.770;9.246;2022-09-13T16:58:54;1.15;;;0.98;;
663;SDS011;314;48.770;9.246;2022-09-13T17:01:27;4.70;;;1.10;;
663;SDS011;314;48.770;9.246;2022-09-13T17:03:54;1.88;;;1.27;;
663;SDS011;314;48.770;9.246;2022-09-13T17:06:21;1.00;;;0.75;;
663;SDS011;314;48.770;9.246;2022-09-13T17:08:55;0.80;;;0.80;;
663;SDS011;314;48.770;9.246;2022-09-13T17:11:27;1.55;;;0.90;;
663;SDS011;314;48.770;9.246;2022-09-13T17:13:55;0.88;;;0.77;;
663;SDS011;314;48.770;9.246;2022-09-13T17:16:23;1.17;;;1.00;;
663;SDS011;314;48.770;9.246;2022-09-13T17:18:56;0.85;;;0.70;;
663;SDS011;314;48.770;9.246;2022-09-13T17:21:24;1.20;;;1.15;;
663;SDS011;314;48.770;9.246;2022-09-13T17:23:50;1.35;;;0.82;;
663;SDS011;314;48.770;9.246;2022-09-13T17:26:17;1.45;;;1.17;;
663;SDS011;314;48.770;9.246;2022-09-13T17:28:42;1.07;;;1.03;;
663;SDS011;314;48.770;9.246;2022-09-13T17:31:08;1.20;;;1.10;;
663;SDS011;314;48.770;9.246;2022-09-13T17:33:34;2.90;;;1.10;;
663;SDS011;314;48.770;9.246;2022-09-13T17:36:01;2.20;;;1.27;;
663;SDS011;314;48.770;9.246;2022-09-13T17:38:35;7.50;;;1.58;;
663;SDS011;314;48.770;9.246;2022-09-13T17:41:09;1.30;;;1.10;;
663;SDS011;314;48.770;9.246;2022-09-13T17:43:38;2.75;;;1.67;;
663;SDS011;314;48.770;9.246;2022-09-13T17:46:07;2.00;;;1.50;;
663;SDS011;314;48.770;9.246;2022-09-13T17:48:37;2.60;;;1.95;;
663;SDS011;314;48.770;9.246;2022-09-13T17:51:05;4.75;;;2.40;;
663;SDS011;314;48.770;9.246;2022-09-13T17:53:39;9.50;;;4.72;;
663;SDS011;314;48.770;9.246;2022-09-13T17:56:07;15.88;;;7.00;;
663;SDS011;314;48.770;9.246;2022-09-13T17:58:33;6.68;;;3.65;;
663;SDS011;314;48.770;9.246;2022-09-13T18:01:03;6.05;;;3.42;;
663;SDS011;314;48.770;9.246;2022-09-13T18:03:34;5.40;;;2.97;;
663;SDS011;314;48.770;9.246;2022-09-13T18:06:01;14.27;;;3.97;;
663;SDS011;314;48.770;9.246;2022-09-13T18:08:28;5.78;;;4.05;;
663;SDS011;314;48.770;9.246;2022-09-13T18:11:00;3.92;;;2.92;;
663;SDS011;314;48.770;9.246;2022-09-13T18:13:30;4.22;;;2.17;;
663;SDS011;314;48.770;9.246;2022-09-13T18:15:57;4.95;;;2.03;;
663;SDS011;314;48.770;9.246;2022-09-13T18:18:24;1.73;;;1.30;;
663;SDS011;314;48.770;9.246;2022-09-13T18:20:49;3.13;;;1.70;;
663;SDS011;314;48.770;9.246;2022-09-13T18:23:15;4.40;;;3.57;;
663;SDS011;314;48.770;9.246;2022-09-13T18:25:41;7.50;;;4.20;;
663;SDS011;314;48.770;9.246;2022-09-13T18:28:07;8.80;;;3.87;;
663;SDS011;314;48.770;9.246;2022-09-13T18:30:32;3.23;;;2.10;;
663;SDS011;314;48.770;9.246;2022-09-13T18:32:58;2.53;;;2.20;;
663;SDS011;314;48.770;9.246;2022-09-13T18:35:24;4.00;;;2.60;;
663;SDS011;314;48.770;9.246;2022-09-13T18:37:50;3.63;;;2.27;;
663;SDS011;314;48.770;9.246;2022-09-13T18:40:16;1.90;;;1.70;;
663;SDS011;314;48.770;9.246;2022-09-13T18:42:41;1.60;;;1.27;;
663;SDS011;314;48.770;9.246;2022-09-13T18:45:07;3.53;;;1.90;;
663;SDS011;314;48.770;9.246;2022-09-13T18:47:33;8.43;;;1.35;;
663;SDS011;314;48.770;9.246;2022-09-13T18:49:59;1.80;;;1.47;;
663;SDS011;314;48.770;9.246;2022-09-13T18:52:26;3.47;;;1.55;;
663;SDS011;314;48.770;9.246;2022-09-13T18:54:52;1.45;;;1.13;;
663;SDS011;314;48.770;9.246;2022-09-13T18:57:17;2.03;;;1.80;;
663;SDS011;314;48.770;9.246;2022-09-13T18:59:43;2.17;;;1.87;;
663;SDS011;314;48.770;9.246;2022-09-13T19:02:09;2.70;;;1.57;;
663;SDS011;314;48.770;9.246;2022-09-13T19:04:35;1.35;;;1.05;;
663;SDS011;314;48.770;9.246;2022-09-13T19:07:02;2.60;;;1.60;;
663;SDS011;314;48.770;9.246;2022-09-13T19:09:31;2.75;;;1.60;;
663;SDS011;314;48.770;9.246;2022-09-13T19:12:00;2.75;;;1.63;;
663;SDS011;314;48.770;9.246;2022-09-13T19:14:27;4.25;;;1.33;;
663;SDS011;314;48.770;9.246;2022-09-13T19:16:54;5.88;;;1.15;;
663;SDS011;314;48.770;9.246;2022-09-13T19:19:24;1.50;;;1.25;;
663;SDS011;314;48.770;9.246;2022-09-13T19:21:50;1.40;;;1.10;;
663;SDS011;314;48.770;9.246;2022-09-13T19:24:16;1.03;;;0.80;;
663;SDS011;314;48.770;9.246;2022-09-13T19:26:42;2.13;;;1.43;;
663;SDS011;314;48.770;9.246;2022-09-13T19:29:13;4.25;;;1.58;;
663;SDS011;314;48.770;9.246;2022-09-13T19:31:41;1.75;;;1.25;;
663;SDS011;314;48.770;9.246;2022-09-13T19:34:09;1.27;;;1.17;;
663;SDS011;314;48.770;9.246;2022-09-13T19:36:36;1.90;;;1.85;;
663;SDS011;314;48.770;9.246;2022-09-13T19:39:04;1.92;;;1.58;;
663;SDS011;314;48.770;9.246;2022-09-13T19:41:31;1.02;;;0.95;;
663;SDS011;314;48.770;9.246;2022-09-13T19:43:58;2.92;;;1.30;;
663;SDS011;314;48.770;9.246;2022-09-13T19:46:26;2.53;;;1.17;;
663;SDS011;314;48.770;9.246;2022-09-13T19:48:56;1.77;;;1.63;;